createdAt,value
2018-09-30T00:00:51.200Z,9.13
2018-09-30T00:03:19.403Z,6.23
2018-09-30T00:05:47.752Z,7.40
2018-09-30T00:08:16.042Z,7.03
2018-09-30T00:10:44.265Z,5.93
2018-09-30T00:13:12.584Z,8.07
2018-09-30T00:15:40.849Z,7.57
2018-09-30T00:18:09.108Z,9.10
2018-09-30T00:20:37.345Z,6.93
2018-09-30T00:23:05.612Z,7.77
2018-09-30T00:25:39.257Z,7.60
2018-09-30T00:28:07.500Z,6.60
2018-09-30T00:30:35.749Z,7.60
2018-09-30T00:33:04.033Z,8.43
2018-09-30T00:35:32.266Z,8.77
2018-09-30T00:38:00.482Z,7.00
2018-09-30T00:40:28.755Z,8.40
2018-09-30T00:42:56.981Z,9.93
2018-09-30T00:45:25.221Z,10.23
2018-09-30T00:47:53.419Z,8.13
2018-09-30T00:50:21.630Z,6.83
2018-09-30T00:52:49.976Z,8.30
2018-09-30T00:55:18.261Z,8.97
2018-09-30T00:57:46.553Z,10.07
2018-09-30T01:00:14.784Z,10.20
2018-09-30T01:02:43.039Z,8.13
2018-09-30T01:05:11.271Z,11.20
2018-09-30T01:07:39.532Z,7.27
2018-09-30T01:10:07.857Z,10.13
2018-09-30T01:12:36.093Z,10.30
2018-09-30T01:15:04.329Z,8.47
2018-09-30T01:17:32.576Z,10.60
2018-09-30T01:20:00.817Z,9.73
2018-09-30T01:22:29.035Z,10.27
2018-09-30T01:24:57.304Z,7.37
2018-09-30T01:27:25.534Z,11.43
2018-09-30T01:29:53.741Z,8.13
2018-09-30T01:32:22.031Z,10.03
2018-09-30T01:34:50.251Z,11.10
2018-09-30T01:37:18.469Z,11.27
2018-09-30T01:39:46.847Z,7.97
2018-09-30T01:42:15.074Z,9.50
2018-09-30T01:44:43.299Z,11.70
2018-09-30T01:47:11.533Z,8.70
2018-09-30T01:49:39.745Z,10.33
2018-09-30T01:52:19.447Z,11.77
2018-09-30T01:54:47.689Z,7.63
2018-09-30T01:57:15.889Z,7.50
2018-09-30T01:59:44.140Z,6.80
2018-09-30T02:02:12.383Z,10.30
2018-09-30T02:04:40.581Z,8.03
2018-09-30T02:07:08.823Z,7.73
2018-09-30T02:09:37.101Z,7.53
2018-09-30T02:12:05.329Z,8.10
2018-09-30T02:14:33.639Z,9.33
2018-09-30T02:17:01.855Z,9.03
2018-09-30T02:19:30.161Z,8.40
2018-09-30T02:21:58.399Z,7.93
2018-09-30T02:24:26.632Z,10.17
2018-09-30T02:26:54.845Z,8.93
2018-09-30T02:29:23.100Z,8.57
2018-09-30T02:31:51.310Z,9.27
2018-09-30T02:34:19.535Z,6.23
2018-09-30T02:36:47.759Z,10.33
2018-09-30T02:39:15.951Z,7.83
2018-09-30T02:41:44.221Z,5.50
2018-09-30T02:44:12.466Z,9.47
2018-09-30T02:46:40.718Z,9.63
2018-09-30T02:49:08.981Z,7.93
2018-09-30T02:51:37.221Z,7.63
2018-09-30T02:54:05.475Z,6.23
2018-09-30T02:56:33.685Z,7.57
2018-09-30T02:59:01.937Z,6.77
2018-09-30T03:01:30.167Z,6.87
2018-09-30T03:03:58.365Z,7.47
2018-09-30T03:06:31.997Z,9.97
2018-09-30T03:09:05.622Z,6.13
2018-09-30T03:11:33.824Z,6.87
2018-09-30T03:14:02.041Z,7.83
2018-09-30T03:16:30.296Z,7.43
2018-09-30T03:18:58.846Z,6.93
2018-09-30T03:21:27.104Z,7.00
2018-09-30T03:23:55.339Z,8.67
2018-09-30T03:26:23.613Z,7.70
2018-09-30T03:28:51.844Z,7.30
2018-09-30T03:31:20.083Z,8.43
2018-09-30T03:33:48.328Z,8.67
2018-09-30T03:36:16.528Z,6.30
2018-09-30T03:38:44.744Z,5.77
2018-09-30T03:41:13.043Z,9.43
2018-09-30T03:43:41.430Z,7.63
2018-09-30T03:46:09.700Z,9.93
2018-09-30T03:48:37.968Z,6.63
2018-09-30T03:51:06.221Z,6.53
2018-09-30T03:53:34.465Z,6.33
2018-09-30T03:56:02.691Z,5.77
2018-09-30T03:58:30.977Z,6.53
2018-09-30T04:00:59.314Z,10.77
2018-09-30T04:03:27.523Z,5.77
2018-09-30T04:05:55.755Z,6.27
2018-09-30T04:08:23.980Z,6.83
2018-09-30T04:10:52.250Z,5.27
2018-09-30T04:13:20.529Z,6.10
2018-09-30T04:15:48.754Z,7.63
2018-09-30T04:18:16.974Z,6.20
2018-09-30T04:20:45.273Z,6.90
2018-09-30T04:23:13.546Z,5.50
2018-09-30T04:25:41.803Z,4.77
2018-09-30T04:28:10.035Z,5.60
2018-09-30T04:30:38.250Z,5.60
2018-09-30T04:33:06.529Z,4.97
2018-09-30T04:35:34.823Z,8.10
2018-09-30T04:38:03.032Z,4.80
2018-09-30T04:40:31.416Z,6.40
2018-09-30T04:42:59.655Z,4.87
2018-09-30T04:45:27.881Z,5.33
2018-09-30T04:47:56.096Z,7.07
2018-09-30T04:50:24.346Z,6.43
2018-09-30T04:52:52.561Z,3.77
2018-09-30T04:55:20.822Z,5.53
2018-09-30T04:57:49.085Z,3.87
2018-09-30T05:00:17.354Z,5.77
2018-09-30T05:02:45.631Z,5.97
2018-09-30T05:05:13.919Z,7.77
2018-09-30T05:07:42.150Z,4.83
2018-09-30T05:10:10.357Z,8.50
2018-09-30T05:12:38.616Z,5.57
2018-09-30T05:15:06.816Z,6.63
2018-09-30T05:17:35.055Z,4.90
2018-09-30T05:20:03.365Z,6.70
2018-09-30T05:22:31.633Z,4.37
2018-09-30T05:24:59.843Z,4.73
2018-09-30T05:27:28.065Z,5.87
2018-09-30T05:29:56.254Z,4.33
2018-09-30T05:32:24.447Z,7.10
2018-09-30T05:34:52.656Z,6.33
2018-09-30T05:37:20.903Z,5.67
2018-09-30T05:39:49.044Z,7.23
2018-09-30T05:42:17.314Z,5.70
2018-09-30T05:44:45.513Z,6.37
2018-09-30T05:47:13.763Z,4.17
2018-09-30T05:49:42.075Z,4.93
2018-09-30T05:52:10.327Z,3.83
2018-09-30T05:54:38.521Z,4.73
2018-09-30T05:57:06.794Z,4.93
2018-09-30T05:59:34.998Z,5.13
2018-09-30T06:02:03.231Z,7.73
2018-09-30T06:04:31.449Z,6.93
2018-09-30T06:06:59.665Z,11.97
2018-09-30T06:09:27.891Z,7.87
2018-09-30T06:11:56.164Z,6.23
2018-09-30T06:14:24.358Z,5.30
2018-09-30T06:16:52.617Z,6.17
2018-09-30T06:19:20.872Z,8.23
2018-09-30T06:21:49.102Z,7.50
2018-09-30T06:24:17.417Z,7.90
2018-09-30T06:26:45.560Z,8.67
2018-09-30T06:29:13.786Z,9.23
2018-09-30T06:31:42.141Z,3.80
2018-09-30T06:34:10.307Z,6.93
2018-09-30T06:36:38.606Z,12.33
2018-09-30T06:39:08.319Z,9.03
2018-09-30T06:41:37.184Z,4.87
2018-09-30T06:44:05.672Z,6.57
2018-09-30T06:46:33.979Z,6.90
2018-09-30T06:49:02.222Z,9.73
2018-09-30T06:51:30.423Z,11.73
2018-09-30T06:53:58.656Z,8.20
2018-09-30T06:56:26.891Z,6.20
2018-09-30T06:58:55.092Z,7.23
2018-09-30T07:01:23.339Z,8.57
2018-09-30T07:03:51.565Z,7.90
2018-09-30T07:06:19.801Z,7.53
2018-09-30T07:08:48.017Z,6.93
2018-09-30T07:11:16.257Z,5.83
2018-09-30T07:13:44.753Z,7.00
2018-09-30T07:16:12.960Z,3.50
2018-09-30T07:18:41.228Z,4.30
2018-09-30T07:21:09.512Z,5.43
2018-09-30T07:23:37.696Z,6.27
2018-09-30T07:26:05.888Z,3.40
2018-09-30T07:28:34.133Z,6.73
2018-09-30T07:31:02.329Z,4.37
2018-09-30T07:33:30.532Z,4.43
2018-09-30T07:35:58.785Z,5.90
2018-09-30T07:38:27.005Z,10.20
2018-09-30T07:40:55.204Z,3.67
2018-09-30T07:43:23.396Z,5.27
2018-09-30T07:45:51.564Z,5.17
2018-09-30T07:48:19.757Z,7.83
2018-09-30T07:50:48.016Z,4.67
2018-09-30T07:53:16.219Z,7.10
2018-09-30T07:55:44.430Z,4.93
2018-09-30T07:58:12.643Z,5.77
2018-09-30T08:00:40.597Z,2.60
2018-09-30T08:03:08.844Z,4.80
2018-09-30T08:05:37.055Z,5.23
2018-09-30T08:08:05.254Z,3.37
2018-09-30T08:10:33.500Z,3.67
2018-09-30T08:13:01.701Z,5.50
2018-09-30T08:15:29.906Z,8.30
2018-09-30T08:17:58.112Z,3.40
2018-09-30T08:20:26.299Z,3.20
2018-09-30T08:22:54.493Z,4.97
2018-09-30T08:25:22.881Z,6.97
2018-09-30T08:27:51.171Z,4.03
2018-09-30T08:30:19.412Z,5.63
2018-09-30T08:32:47.600Z,4.33
2018-09-30T08:35:15.822Z,5.20
2018-09-30T08:37:49.350Z,3.87
2018-09-30T08:40:22.640Z,5.67
2018-09-30T08:42:50.908Z,4.80
2018-09-30T08:45:19.133Z,5.47
2018-09-30T08:47:47.537Z,4.30
2018-09-30T08:50:15.744Z,3.83
2018-09-30T08:52:43.937Z,2.93
2018-09-30T08:55:12.188Z,4.77
2018-09-30T08:57:40.670Z,5.13
2018-09-30T09:00:08.833Z,6.50
2018-09-30T09:02:37.076Z,3.07
2018-09-30T09:05:05.357Z,3.07
2018-09-30T09:07:33.575Z,4.10
2018-09-30T09:10:01.827Z,4.13
2018-09-30T09:12:30.046Z,4.20
2018-09-30T09:14:58.288Z,4.50
2018-09-30T09:17:26.485Z,7.23
2018-09-30T09:19:54.710Z,3.80
2018-09-30T09:22:22.998Z,4.87
2018-09-30T09:24:51.203Z,3.90
2018-09-30T09:27:19.525Z,3.90
2018-09-30T09:29:47.717Z,4.40
2018-09-30T09:32:15.933Z,8.20
2018-09-30T09:34:44.149Z,7.40
2018-09-30T09:37:12.348Z,4.67
2018-09-30T09:39:40.551Z,3.57
2018-09-30T09:42:08.737Z,5.10
2018-09-30T09:44:36.949Z,3.40
2018-09-30T09:47:05.183Z,5.00
2018-09-30T09:49:33.368Z,6.17
2018-09-30T09:52:01.611Z,4.20
2018-09-30T09:54:29.810Z,4.63
2018-09-30T09:56:58.039Z,3.83
2018-09-30T09:59:26.344Z,3.98
2018-09-30T10:01:54.488Z,5.70
2018-09-30T10:04:22.696Z,3.33
2018-09-30T10:06:50.953Z,6.42
2018-09-30T10:09:19.191Z,5.85
2018-09-30T10:11:47.433Z,6.07
2018-09-30T10:14:15.742Z,4.70
2018-09-30T10:16:43.985Z,4.43
2018-09-30T10:19:11.915Z,2.98
2018-09-30T10:21:40.124Z,5.83
2018-09-30T10:24:08.322Z,4.90
2018-09-30T10:26:36.502Z,5.60
2018-09-30T10:29:04.732Z,7.17
2018-09-30T10:31:32.960Z,5.43
2018-09-30T10:34:01.508Z,3.87
2018-09-30T10:36:29.717Z,6.50
2018-09-30T10:38:58.102Z,7.00
2018-09-30T10:41:26.186Z,5.00
2018-09-30T10:43:54.369Z,5.80
2018-09-30T10:46:29.287Z,7.20
2018-09-30T10:48:57.647Z,4.93
2018-09-30T10:51:25.830Z,7.93
2018-09-30T10:53:54.015Z,5.07
2018-09-30T10:56:22.153Z,5.60
2018-09-30T10:58:50.128Z,7.30
2018-09-30T11:01:18.354Z,5.60
2018-09-30T11:03:46.569Z,7.43
2018-09-30T11:06:14.826Z,7.37
2018-09-30T11:08:43.013Z,8.13
2018-09-30T11:11:10.986Z,7.63
2018-09-30T11:13:39.217Z,8.10
2018-09-30T11:16:07.454Z,6.13
2018-09-30T11:18:35.627Z,4.90
2018-09-30T11:21:03.926Z,4.53
2018-09-30T11:23:32.101Z,4.70
2018-09-30T11:26:00.286Z,5.27
2018-09-30T11:28:28.489Z,4.93
2018-09-30T11:30:56.709Z,5.40
2018-09-30T11:33:24.904Z,8.77
2018-09-30T11:35:53.098Z,4.13
2018-09-30T11:40:55.867Z,7.67
2018-09-30T11:43:24.049Z,8.37
2018-09-30T11:45:52.268Z,6.30
2018-09-30T11:48:20.470Z,7.40
2018-09-30T11:50:48.673Z,7.43
2018-09-30T11:53:16.917Z,7.90
2018-09-30T11:55:45.164Z,4.30
2018-09-30T11:58:13.360Z,9.90
2018-09-30T12:00:41.612Z,6.10
2018-09-30T12:03:09.810Z,4.60
2018-09-30T12:05:38.053Z,4.00
2018-09-30T12:08:06.952Z,4.60
2018-09-30T12:10:35.161Z,7.53
2018-09-30T12:13:03.416Z,7.20
2018-09-30T12:15:31.621Z,8.53
2018-09-30T12:17:59.840Z,6.70
2018-09-30T12:20:28.038Z,6.20
2018-09-30T12:22:56.249Z,7.80
2018-09-30T12:25:24.509Z,6.93
2018-09-30T12:27:52.719Z,5.43
2018-09-30T12:30:20.940Z,6.13
2018-09-30T12:32:49.224Z,7.40
2018-09-30T12:35:17.575Z,6.33
2018-09-30T12:37:45.834Z,4.93
2018-09-30T12:40:14.833Z,10.90
2018-09-30T12:42:43.152Z,4.77
2018-09-30T12:45:11.389Z,6.43
2018-09-30T12:47:39.617Z,5.80
2018-09-30T12:50:07.590Z,7.70
2018-09-30T12:52:35.758Z,6.80
2018-09-30T12:55:04.041Z,5.00
2018-09-30T12:57:32.224Z,4.73
2018-09-30T13:00:00.507Z,8.97
2018-09-30T13:02:28.726Z,4.23
2018-09-30T13:04:56.954Z,6.33
2018-09-30T13:07:25.126Z,5.77
2018-09-30T13:09:53.372Z,3.80
2018-09-30T13:12:21.633Z,3.50
2018-09-30T13:14:49.820Z,8.50
2018-09-30T13:17:18.021Z,7.57
2018-09-30T13:19:46.233Z,5.83
2018-09-30T13:22:14.456Z,5.33
2018-09-30T13:24:42.679Z,5.50
2018-09-30T13:27:10.916Z,5.73
2018-09-30T13:29:40.052Z,6.37
2018-09-30T13:32:08.264Z,5.13
2018-09-30T13:34:36.464Z,5.83
2018-09-30T13:37:04.656Z,8.13
2018-09-30T13:39:32.857Z,7.00
2018-09-30T13:42:01.081Z,5.10
2018-09-30T13:44:30.429Z,7.33
2018-09-30T13:46:58.623Z,5.37
2018-09-30T13:49:26.826Z,4.57
2018-09-30T13:51:55.027Z,4.47
2018-09-30T13:54:23.237Z,7.40
2018-09-30T13:56:51.433Z,4.53
2018-09-30T13:59:19.605Z,4.37
2018-09-30T14:01:48.034Z,6.00
2018-09-30T14:04:16.245Z,4.63
2018-09-30T14:06:44.429Z,5.13
2018-09-30T14:09:12.614Z,7.97
2018-09-30T14:11:41.489Z,6.83
2018-09-30T14:14:09.683Z,6.23
2018-09-30T14:16:37.944Z,4.87
2018-09-30T14:19:06.141Z,5.37
2018-09-30T14:21:34.317Z,6.20
2018-09-30T14:24:02.569Z,4.03
2018-09-30T14:26:30.811Z,3.80
2018-09-30T14:28:59.032Z,3.70
2018-09-30T14:31:27.281Z,4.50
2018-09-30T14:33:55.492Z,4.83
2018-09-30T14:36:23.808Z,5.83
2018-09-30T14:38:51.992Z,6.13
2018-09-30T14:41:20.170Z,6.07
2018-09-30T14:43:48.380Z,6.20
2018-09-30T14:46:16.532Z,6.23
2018-09-30T14:48:44.681Z,5.63
2018-09-30T14:51:12.868Z,4.97
2018-09-30T14:53:41.065Z,10.13
2018-09-30T14:56:09.239Z,5.77
2018-09-30T14:58:37.400Z,5.53
2018-09-30T15:01:05.629Z,5.80
2018-09-30T15:03:33.821Z,5.20
2018-09-30T15:06:02.061Z,5.07
2018-09-30T15:08:30.378Z,5.70
2018-09-30T15:10:58.555Z,7.30
2018-09-30T15:13:26.740Z,6.17
2018-09-30T15:15:54.925Z,5.20
2018-09-30T15:18:23.093Z,5.90
2018-09-30T15:20:51.253Z,5.23
2018-09-30T15:23:19.474Z,5.50
2018-09-30T15:25:47.629Z,5.33
2018-09-30T15:28:15.813Z,5.77
2018-09-30T15:30:43.985Z,6.07
2018-09-30T15:33:12.164Z,9.13
2018-09-30T15:35:40.400Z,6.07
2018-09-30T15:38:08.650Z,7.27
2018-09-30T15:40:36.845Z,7.83
2018-09-30T15:43:06.358Z,7.37
2018-09-30T15:45:34.609Z,5.60
2018-09-30T15:48:02.900Z,8.77
2018-09-30T15:50:31.145Z,5.53
2018-09-30T15:52:59.383Z,6.67
2018-09-30T15:55:27.612Z,6.73
2018-09-30T15:57:55.796Z,8.07
2018-09-30T16:00:24.004Z,6.67
2018-09-30T16:02:52.181Z,6.97
2018-09-30T16:05:20.386Z,7.47
2018-09-30T16:07:48.549Z,8.90
2018-09-30T16:10:17.228Z,4.30
2018-09-30T16:12:45.502Z,7.40
2018-09-30T16:15:13.701Z,8.37
2018-09-30T16:17:41.936Z,8.87
2018-09-30T16:20:10.177Z,8.50
2018-09-30T16:22:38.588Z,9.90
2018-09-30T16:25:06.764Z,8.70
2018-09-30T16:27:34.950Z,7.87
2018-09-30T16:30:03.168Z,7.33
2018-09-30T16:32:31.360Z,5.70
2018-09-30T16:34:59.573Z,6.07
2018-09-30T16:37:27.755Z,9.40
2018-09-30T16:39:56.048Z,10.67
2018-09-30T16:42:24.286Z,8.13
2018-09-30T16:44:52.480Z,7.77
2018-09-30T16:47:20.743Z,5.67
2018-09-30T16:49:49.170Z,6.73
2018-09-30T16:52:17.428Z,5.07
2018-09-30T16:54:45.592Z,8.23
2018-09-30T16:57:13.818Z,7.40
2018-09-30T16:59:42.030Z,7.33
2018-09-30T17:02:10.291Z,9.07
2018-09-30T17:04:38.485Z,7.57
2018-09-30T17:07:06.678Z,19.67
2018-09-30T17:09:34.937Z,6.87
2018-09-30T17:12:03.133Z,4.63
2018-09-30T17:14:31.301Z,7.67
2018-09-30T17:16:59.567Z,9.33
2018-09-30T17:19:27.721Z,9.80
2018-09-30T17:21:55.994Z,7.93
2018-09-30T17:24:24.180Z,6.67
2018-09-30T17:26:52.516Z,8.97
2018-09-30T17:29:20.721Z,8.37
2018-09-30T17:31:49.012Z,5.60
2018-09-30T17:34:17.204Z,12.97
2018-09-30T17:36:45.477Z,11.23
2018-09-30T17:39:13.811Z,18.87
2018-09-30T17:41:42.096Z,11.57
2018-09-30T17:44:10.378Z,7.90
2018-09-30T17:46:38.683Z,10.90
2018-09-30T17:49:07.141Z,6.90
2018-09-30T17:51:35.525Z,7.50
2018-09-30T17:54:03.791Z,6.10
2018-09-30T17:56:32.101Z,7.90
2018-09-30T17:59:00.355Z,7.93
2018-09-30T18:01:28.622Z,7.17
2018-09-30T18:03:56.916Z,6.07
2018-09-30T18:06:25.230Z,4.33
2018-09-30T18:08:53.471Z,10.70
2018-09-30T18:11:21.709Z,8.97
2018-09-30T18:13:49.971Z,8.97
2018-09-30T18:16:18.196Z,6.67
2018-09-30T18:18:46.707Z,8.87
2018-09-30T18:21:15.102Z,8.37
2018-09-30T18:23:43.414Z,5.27
2018-09-30T18:26:11.721Z,8.57
2018-09-30T18:28:39.946Z,6.23
2018-09-30T18:31:08.533Z,7.93
2018-09-30T18:33:37.200Z,9.73
2018-09-30T18:36:05.673Z,8.13
2018-09-30T18:38:33.940Z,9.83
2018-09-30T18:41:02.213Z,9.63
2018-09-30T18:43:30.567Z,7.97
2018-09-30T18:45:58.857Z,7.70
2018-09-30T18:48:27.132Z,9.97
2018-09-30T18:50:55.356Z,10.03
2018-09-30T18:53:23.577Z,14.23
2018-09-30T18:55:52.490Z,9.43
2018-09-30T18:58:20.861Z,9.30
2018-09-30T19:00:49.184Z,15.23
2018-09-30T19:03:17.466Z,11.87
2018-09-30T19:05:45.646Z,8.03
2018-09-30T19:08:13.905Z,10.47
2018-09-30T19:10:42.184Z,12.27
2018-09-30T19:13:10.453Z,9.10
2018-09-30T19:15:38.682Z,12.17
2018-09-30T19:18:06.888Z,12.87
2018-09-30T19:20:35.133Z,9.73
2018-09-30T19:23:03.381Z,9.00
2018-09-30T19:25:31.637Z,13.73
2018-09-30T19:27:59.881Z,9.50
2018-09-30T19:30:28.115Z,10.27
2018-09-30T19:32:56.706Z,10.10
2018-09-30T19:35:24.970Z,11.87
2018-09-30T19:37:53.287Z,11.37
2018-09-30T19:40:21.544Z,12.03
2018-09-30T19:42:49.814Z,11.23
2018-09-30T19:45:18.071Z,7.80
2018-09-30T19:47:46.324Z,9.63
2018-09-30T19:50:14.560Z,9.23
2018-09-30T19:52:42.802Z,10.53
2018-09-30T19:55:11.029Z,8.77
2018-09-30T19:57:39.273Z,9.73
2018-09-30T20:00:07.563Z,10.43
2018-09-30T20:02:35.937Z,9.77
2018-09-30T20:05:04.257Z,8.80
2018-09-30T20:07:32.879Z,8.90
2018-09-30T20:10:01.189Z,10.17
2018-09-30T20:12:29.500Z,9.63
2018-09-30T20:14:57.846Z,6.90
2018-09-30T20:17:26.583Z,9.63
2018-09-30T20:19:54.811Z,10.37
2018-09-30T20:22:23.038Z,11.77
2018-09-30T20:24:51.320Z,9.10
2018-09-30T20:27:19.597Z,9.53
2018-09-30T20:29:47.874Z,7.57
2018-09-30T20:32:16.090Z,12.23
2018-09-30T20:34:44.349Z,10.73
2018-09-30T20:37:12.633Z,8.70
2018-09-30T20:39:40.848Z,9.57
2018-09-30T20:42:09.289Z,9.23
2018-09-30T20:44:37.596Z,9.93
2018-09-30T20:47:05.929Z,8.97
2018-09-30T20:49:34.253Z,8.87
2018-09-30T20:52:02.509Z,9.77
2018-09-30T20:54:30.801Z,12.10
2018-09-30T20:56:59.040Z,11.23
2018-09-30T20:59:27.275Z,8.07
2018-09-30T21:01:55.505Z,9.40
2018-09-30T21:04:23.755Z,6.33
2018-09-30T21:06:51.998Z,9.80
2018-09-30T21:09:21.253Z,12.40
2018-09-30T21:11:49.477Z,8.30
2018-09-30T21:14:17.770Z,8.17
2018-09-30T21:16:45.985Z,9.13
2018-09-30T21:19:14.235Z,9.13
2018-09-30T21:21:42.570Z,6.60
2018-09-30T21:24:10.744Z,9.03
2018-09-30T21:26:38.975Z,8.33
2018-09-30T21:29:07.189Z,8.17
2018-09-30T21:31:35.438Z,10.93
2018-09-30T21:34:03.725Z,9.87
2018-09-30T21:36:31.969Z,7.97
2018-09-30T21:39:00.224Z,15.63
2018-09-30T21:41:28.481Z,12.53
2018-09-30T21:43:56.709Z,13.13
2018-09-30T21:46:25.101Z,12.83
2018-09-30T21:49:14.996Z,15.47
2018-09-30T21:51:43.135Z,13.87
2018-09-30T21:54:11.253Z,11.43
2018-09-30T21:56:39.436Z,12.83
2018-09-30T21:59:07.571Z,12.80
2018-09-30T22:01:35.758Z,13.43
2018-09-30T22:04:03.907Z,12.60
2018-09-30T22:06:32.031Z,12.77
2018-09-30T22:09:00.153Z,14.27
2018-09-30T22:11:28.357Z,12.97
2018-09-30T22:13:56.623Z,10.77
2018-09-30T22:16:24.838Z,12.37
2018-09-30T22:18:53.028Z,13.27
2018-09-30T22:21:21.251Z,10.87
2018-09-30T22:26:40.498Z,12.27
2018-09-30T22:29:08.623Z,17.27
2018-09-30T22:34:11.247Z,12.97
2018-09-30T22:36:39.397Z,12.07
2018-09-30T22:39:08.334Z,10.90
2018-09-30T22:41:36.516Z,15.00
2018-09-30T22:44:04.673Z,15.53
2018-09-30T22:46:32.850Z,12.60
2018-09-30T22:49:01.546Z,11.00
2018-09-30T22:54:20.293Z,14.50
2018-09-30T22:56:48.470Z,12.87
2018-09-30T22:59:16.624Z,12.07
2018-09-30T23:01:44.748Z,15.93
2018-09-30T23:04:12.881Z,12.50
2018-09-30T23:06:40.983Z,13.23
2018-09-30T23:09:09.096Z,14.10
2018-09-30T23:11:37.399Z,13.33
2018-09-30T23:14:05.656Z,14.07
2018-09-30T23:16:33.845Z,16.87
2018-09-30T23:19:02.068Z,12.63
2018-09-30T23:21:30.299Z,10.43
2018-09-30T23:23:58.531Z,12.03
2018-09-30T23:26:26.770Z,11.90
2018-09-30T23:28:55.009Z,13.10
2018-09-30T23:31:23.257Z,9.67
2018-09-30T23:33:51.885Z,13.80
2018-09-30T23:36:20.121Z,12.77
2018-09-30T23:38:48.406Z,12.50
2018-09-30T23:41:16.584Z,12.30
2018-09-30T23:43:44.805Z,16.37
2018-09-30T23:46:13.043Z,16.13
2018-09-30T23:48:41.288Z,14.67
2018-09-30T23:51:10.469Z,12.30
2018-09-30T23:53:38.685Z,11.03
2018-09-30T23:56:06.991Z,14.83
2018-09-30T23:58:35.211Z,12.10
